sensor_id;sensor_type;location;lat;lon;timestamp;P1;durP1;ratioP1;P2;durP2;ratioP2
84759;SDS011;74983;51.084;11.086;2023-12-28T00:00:12;3.13;;;1.17;;
84759;SDS011;74983;51.084;11.086;2023-12-28T00:02:37;2.10;;;1.15;;
84759;SDS011;74983;51.084;11.086;2023-12-28T00:05:03;1.77;;;1.00;;
84759;SDS011;74983;51.084;11.086;2023-12-28T00:07:28;3.63;;;1.38;;
84759;SDS011;74983;51.084;11.086;2023-12-28T00:09:54;1.83;;;1.10;;
84759;SDS011;74983;51.084;11.086;2023-12-28T00:12:19;1.80;;;1.20;;
84759;SDS011;74983;51.084;11.086;2023-12-28T00:14:44;1.43;;;0.80;;
84759;SDS011;74983;51.084;11.086;2023-12-28T00:17:10;2.30;;;0.93;;
84759;SDS011;74983;51.084;11.086;2023-12-28T00:19:35;1.83;;;0.97;;
84759;SDS011;74983;51.084;11.086;2023-12-28T00:22:00;1.53;;;0.97;;
84759;SDS011;74983;51.084;11.086;2023-12-28T00:24:25;3.07;;;1.13;;
84759;SDS011;74983;51.084;11.086;2023-12-28T00:26:51;3.33;;;1.40;;
84759;SDS011;74983;51.084;11.086;2023-12-28T00:29:19;1.13;;;0.77;;
84759;SDS011;74983;51.084;11.086;2023-12-28T00:31:44;1.98;;;1.20;;
84759;SDS011;74983;51.084;11.086;2023-12-28T00:34:10;1.83;;;1.20;;
84759;SDS011;74983;51.084;11.086;2023-12-28T00:36:35;1.47;;;0.90;;
84759;SDS011;74983;51.084;11.086;2023-12-28T00:39:00;2.17;;;0.80;;
84759;SDS011;74983;51.084;11.086;2023-12-28T00:41:25;1.73;;;1.43;;
84759;SDS011;74983;51.084;11.086;2023-12-28T00:43:51;2.77;;;1.30;;
84759;SDS011;74983;51.084;11.086;2023-12-28T00:46:16;1.93;;;1.00;;
84759;SDS011;74983;51.084;11.086;2023-12-28T00:48:41;1.67;;;0.70;;
84759;SDS011;74983;51.084;11.086;2023-12-28T00:51:07;3.30;;;1.23;;
84759;SDS011;74983;51.084;11.086;2023-12-28T00:53:32;1.58;;;0.77;;
84759;SDS011;74983;51.084;11.086;2023-12-28T00:55:57;3.07;;;1.10;;
84759;SDS011;74983;51.084;11.086;2023-12-28T00:58:23;2.20;;;1.10;;
84759;SDS011;74983;51.084;11.086;2023-12-28T01:00:48;1.83;;;1.10;;
84759;SDS011;74983;51.084;11.086;2023-12-28T01:03:13;3.33;;;1.27;;
84759;SDS011;74983;51.084;11.086;2023-12-28T01:05:39;3.47;;;1.25;;
84759;SDS011;74983;51.084;11.086;2023-12-28T01:08:04;2.40;;;1.05;;
84759;SDS011;74983;51.084;11.086;2023-12-28T01:10:30;1.73;;;0.82;;
84759;SDS011;74983;51.084;11.086;2023-12-28T01:12:55;1.53;;;0.97;;
84759;SDS011;74983;51.084;11.086;2023-12-28T01:15:20;3.43;;;1.10;;
84759;SDS011;74983;51.084;11.086;2023-12-28T01:17:46;2.63;;;1.00;;
84759;SDS011;74983;51.084;11.086;2023-12-28T01:20:13;2.55;;;0.82;;
84759;SDS011;74983;51.084;11.086;2023-12-28T01:22:38;3.05;;;1.00;;
84759;SDS011;74983;51.084;11.086;2023-12-28T01:25:03;2.13;;;0.90;;
84759;SDS011;74983;51.084;11.086;2023-12-28T01:27:29;1.10;;;0.82;;
84759;SDS011;74983;51.084;11.086;2023-12-28T01:29:54;1.70;;;0.90;;
84759;SDS011;74983;51.084;11.086;2023-12-28T01:32:20;1.55;;;0.70;;
84759;SDS011;74983;51.084;11.086;2023-12-28T01:34:45;1.87;;;1.10;;
84759;SDS011;74983;51.084;11.086;2023-12-28T01:37:10;3.23;;;1.30;;
84759;SDS011;74983;51.084;11.086;2023-12-28T01:39:36;3.23;;;1.63;;
84759;SDS011;74983;51.084;11.086;2023-12-28T01:42:01;2.43;;;1.00;;
84759;SDS011;74983;51.084;11.086;2023-12-28T01:44:27;2.35;;;0.95;;
84759;SDS011;74983;51.084;11.086;2023-12-28T01:46:52;2.33;;;0.80;;
84759;SDS011;74983;51.084;11.086;2023-12-28T01:49:18;2.85;;;0.98;;
84759;SDS011;74983;51.084;11.086;2023-12-28T01:51:43;1.23;;;1.10;;
84759;SDS011;74983;51.084;11.086;2023-12-28T01:54:10;1.20;;;0.88;;
84759;SDS011;74983;51.084;11.086;2023-12-28T01:56:36;1.98;;;0.80;;
84759;SDS011;74983;51.084;11.086;2023-12-28T01:59:02;1.38;;;0.93;;
84759;SDS011;74983;51.084;11.086;2023-12-28T02:01:27;1.97;;;1.37;;
84759;SDS011;74983;51.084;11.086;2023-12-28T02:03:52;1.20;;;1.00;;
84759;SDS011;74983;51.084;11.086;2023-12-28T02:06:20;1.60;;;0.70;;
84759;SDS011;74983;51.084;11.086;2023-12-28T02:08:48;1.25;;;0.73;;
84759;SDS011;74983;51.084;11.086;2023-12-28T02:11:13;3.97;;;1.53;;
84759;SDS011;74983;51.084;11.086;2023-12-28T02:13:39;2.05;;;0.93;;
84759;SDS011;74983;51.084;11.086;2023-12-28T02:16:47;1.90;;;1.20;;
84759;SDS011;74983;51.084;11.086;2023-12-28T02:18:53;1.27;;;0.93;;
84759;SDS011;74983;51.084;11.086;2023-12-28T02:21:21;4.10;;;0.98;;
84759;SDS011;74983;51.084;11.086;2023-12-28T02:23:47;2.33;;;0.70;;
84759;SDS011;74983;51.084;11.086;2023-12-28T02:26:13;0.90;;;0.65;;
84759;SDS011;74983;51.084;11.086;2023-12-28T02:28:39;2.58;;;1.02;;
84759;SDS011;74983;51.084;11.086;2023-12-28T02:31:05;2.20;;;1.17;;
84759;SDS011;74983;51.084;11.086;2023-12-28T02:33:43;1.92;;;1.10;;
84759;SDS011;74983;51.084;11.086;2023-12-28T02:36:13;2.22;;;1.05;;
84759;SDS011;74983;51.084;11.086;2023-12-28T02:38:43;0.98;;;0.77;;
84759;SDS011;74983;51.084;11.086;2023-12-28T02:41:10;1.33;;;0.93;;
84759;SDS011;74983;51.084;11.086;2023-12-28T02:43:37;2.28;;;1.23;;
84759;SDS011;74983;51.084;11.086;2023-12-28T02:46:02;2.50;;;1.30;;
84759;SDS011;74983;51.084;11.086;2023-12-28T02:48:28;0.83;;;0.73;;
84759;SDS011;74983;51.084;11.086;2023-12-28T02:50:53;2.43;;;1.20;;
84759;SDS011;74983;51.084;11.086;2023-12-28T02:53:18;1.47;;;1.00;;
84759;SDS011;74983;51.084;11.086;2023-12-28T02:55:43;2.83;;;0.80;;
84759;SDS011;74983;51.084;11.086;2023-12-28T02:58:09;2.10;;;1.07;;
84759;SDS011;74983;51.084;11.086;2023-12-28T03:00:34;1.97;;;1.07;;
84759;SDS011;74983;51.084;11.086;2023-12-28T03:02:59;2.47;;;1.20;;
84759;SDS011;74983;51.084;11.086;2023-12-28T03:05:25;1.50;;;0.80;;
84759;SDS011;74983;51.084;11.086;2023-12-28T03:07:50;1.30;;;0.83;;
84759;SDS011;74983;51.084;11.086;2023-12-28T03:10:15;1.73;;;1.13;;
84759;SDS011;74983;51.084;11.086;2023-12-28T03:12:41;0.77;;;0.75;;
84759;SDS011;74983;51.084;11.086;2023-12-28T03:15:06;2.20;;;0.80;;
84759;SDS011;74983;51.084;11.086;2023-12-28T03:17:31;2.17;;;1.02;;
84759;SDS011;74983;51.084;11.086;2023-12-28T03:20:01;3.38;;;1.20;;
84759;SDS011;74983;51.084;11.086;2023-12-28T03:22:26;1.13;;;0.85;;
84759;SDS011;74983;51.084;11.086;2023-12-28T03:24:51;3.22;;;1.30;;
84759;SDS011;74983;51.084;11.086;2023-12-28T03:27:17;3.33;;;1.60;;
84759;SDS011;74983;51.084;11.086;2023-12-28T03:29:42;2.07;;;1.17;;
84759;SDS011;74983;51.084;11.086;2023-12-28T03:32:08;1.63;;;1.00;;
84759;SDS011;74983;51.084;11.086;2023-12-28T03:34:33;2.83;;;1.55;;
84759;SDS011;74983;51.084;11.086;2023-12-28T03:36:59;2.08;;;1.30;;
84759;SDS011;74983;51.084;11.086;2023-12-28T03:39:24;2.70;;;1.60;;
84759;SDS011;74983;51.084;11.086;2023-12-28T03:41:49;3.20;;;1.50;;
84759;SDS011;74983;51.084;11.086;2023-12-28T03:44:15;3.80;;;1.43;;
84759;SDS011;74983;51.084;11.086;2023-12-28T03:46:40;1.87;;;1.00;;
84759;SDS011;74983;51.084;11.086;2023-12-28T03:49:05;2.83;;;1.30;;
84759;SDS011;74983;51.084;11.086;2023-12-28T03:51:31;2.13;;;0.90;;
84759;SDS011;74983;51.084;11.086;2023-12-28T03:53:56;1.60;;;1.10;;
84759;SDS011;74983;51.084;11.086;2023-12-28T03:56:22;2.90;;;1.80;;
84759;SDS011;74983;51.084;11.086;2023-12-28T03:58:49;3.78;;;1.30;;
84759;SDS011;74983;51.084;11.086;2023-12-28T04:01:14;3.85;;;1.48;;
84759;SDS011;74983;51.084;11.086;2023-12-28T04:03:41;1.73;;;0.88;;
84759;SDS011;74983;51.084;11.086;2023-12-28T04:06:06;3.73;;;1.50;;
84759;SDS011;74983;51.084;11.086;2023-12-28T04:08:32;3.25;;;1.50;;
84759;SDS011;74983;51.084;11.086;2023-12-28T04:10:57;2.90;;;1.10;;
84759;SDS011;74983;51.084;11.086;2023-12-28T04:13:22;1.90;;;1.20;;
84759;SDS011;74983;51.084;11.086;2023-12-28T04:15:48;3.65;;;1.45;;
84759;SDS011;74983;51.084;11.086;2023-12-28T04:18:13;1.97;;;1.10;;
84759;SDS011;74983;51.084;11.086;2023-12-28T04:20:42;1.60;;;1.20;;
84759;SDS011;74983;51.084;11.086;2023-12-28T04:23:09;2.47;;;1.10;;
84759;SDS011;74983;51.084;11.086;2023-12-28T04:25:34;3.37;;;1.33;;
84759;SDS011;74983;51.084;11.086;2023-12-28T04:28:00;2.97;;;1.20;;
84759;SDS011;74983;51.084;11.086;2023-12-28T04:30:25;2.77;;;1.60;;
84759;SDS011;74983;51.084;11.086;2023-12-28T04:32:50;2.85;;;1.55;;
84759;SDS011;74983;51.084;11.086;2023-12-28T04:35:16;1.87;;;1.50;;
84759;SDS011;74983;51.084;11.086;2023-12-28T04:37:41;3.20;;;1.43;;
84759;SDS011;74983;51.084;11.086;2023-12-28T04:40:06;2.90;;;1.43;;
84759;SDS011;74983;51.084;11.086;2023-12-28T04:42:33;2.85;;;1.58;;
84759;SDS011;74983;51.084;11.086;2023-12-28T04:44:58;2.60;;;1.53;;
84759;SDS011;74983;51.084;11.086;2023-12-28T04:47:24;5.33;;;1.70;;
84759;SDS011;74983;51.084;11.086;2023-12-28T04:49:49;2.43;;;1.30;;
84759;SDS011;74983;51.084;11.086;2023-12-28T04:52:14;4.20;;;1.63;;
84759;SDS011;74983;51.084;11.086;2023-12-28T04:54:40;3.17;;;1.40;;
84759;SDS011;74983;51.084;11.086;2023-12-28T04:57:05;2.67;;;1.55;;
84759;SDS011;74983;51.084;11.086;2023-12-28T04:59:33;3.22;;;1.70;;
84759;SDS011;74983;51.084;11.086;2023-12-28T05:02:02;2.65;;;1.60;;
84759;SDS011;74983;51.084;11.086;2023-12-28T05:04:28;2.17;;;1.37;;
84759;SDS011;74983;51.084;11.086;2023-12-28T05:06:53;4.00;;;1.90;;
84759;SDS011;74983;51.084;11.086;2023-12-28T05:09:18;3.47;;;1.73;;
84759;SDS011;74983;51.084;11.086;2023-12-28T05:11:44;3.38;;;1.73;;
84759;SDS011;74983;51.084;11.086;2023-12-28T05:14:09;2.57;;;1.53;;
84759;SDS011;74983;51.084;11.086;2023-12-28T05:16:34;2.57;;;1.60;;
84759;SDS011;74983;51.084;11.086;2023-12-28T05:18:59;3.03;;;1.60;;
84759;SDS011;74983;51.084;11.086;2023-12-28T05:21:25;4.80;;;2.10;;
84759;SDS011;74983;51.084;11.086;2023-12-28T05:23:50;4.73;;;1.80;;
84759;SDS011;74983;51.084;11.086;2023-12-28T05:26:15;2.67;;;1.90;;
84759;SDS011;74983;51.084;11.086;2023-12-28T05:28:40;2.20;;;1.70;;
84759;SDS011;74983;51.084;11.086;2023-12-28T05:31:06;2.67;;;1.73;;
84759;SDS011;74983;51.084;11.086;2023-12-28T05:33:31;3.00;;;1.57;;
84759;SDS011;74983;51.084;11.086;2023-12-28T05:35:57;4.03;;;1.75;;
84759;SDS011;74983;51.084;11.086;2023-12-28T05:38:22;2.53;;;1.47;;
84759;SDS011;74983;51.084;11.086;2023-12-28T05:40:47;3.77;;;1.87;;
84759;SDS011;74983;51.084;11.086;2023-12-28T05:43:13;3.63;;;1.80;;
84759;SDS011;74983;51.084;11.086;2023-12-28T05:45:38;4.90;;;1.93;;
84759;SDS011;74983;51.084;11.086;2023-12-28T05:48:03;2.47;;;1.70;;
84759;SDS011;74983;51.084;11.086;2023-12-28T05:50:29;3.08;;;1.83;;
84759;SDS011;74983;51.084;11.086;2023-12-28T05:52:54;3.23;;;2.00;;
84759;SDS011;74983;51.084;11.086;2023-12-28T05:55:20;3.28;;;1.80;;
84759;SDS011;74983;51.084;11.086;2023-12-28T05:57:45;6.53;;;2.15;;
84759;SDS011;74983;51.084;11.086;2023-12-28T06:00:14;5.97;;;2.33;;
84759;SDS011;74983;51.084;11.086;2023-12-28T06:02:40;3.72;;;1.60;;
84759;SDS011;74983;51.084;11.086;2023-12-28T06:05:06;3.25;;;1.50;;
84759;SDS011;74983;51.084;11.086;2023-12-28T06:07:31;2.83;;;1.80;;
84759;SDS011;74983;51.084;11.086;2023-12-28T06:09:57;3.60;;;1.50;;
84759;SDS011;74983;51.084;11.086;2023-12-28T06:12:22;2.63;;;1.63;;
84759;SDS011;74983;51.084;11.086;2023-12-28T06:14:47;3.60;;;1.90;;
84759;SDS011;74983;51.084;11.086;2023-12-28T06:17:13;2.17;;;1.87;;
84759;SDS011;74983;51.084;11.086;2023-12-28T06:19:40;2.83;;;1.75;;
84759;SDS011;74983;51.084;11.086;2023-12-28T06:22:05;3.42;;;1.20;;
84759;SDS011;74983;51.084;11.086;2023-12-28T06:24:31;2.20;;;1.30;;
84759;SDS011;74983;51.084;11.086;2023-12-28T06:26:56;1.10;;;1.00;;
84759;SDS011;74983;51.084;11.086;2023-12-28T06:29:21;1.43;;;1.03;;
84759;SDS011;74983;51.084;11.086;2023-12-28T06:31:47;2.40;;;1.30;;
84759;SDS011;74983;51.084;11.086;2023-12-28T06:34:12;1.90;;;1.13;;
84759;SDS011;74983;51.084;11.086;2023-12-28T06:36:38;3.95;;;1.77;;
84759;SDS011;74983;51.084;11.086;2023-12-28T06:39:03;1.10;;;0.90;;
84759;SDS011;74983;51.084;11.086;2023-12-28T06:41:29;2.60;;;1.50;;
84759;SDS011;74983;51.084;11.086;2023-12-28T06:43:54;2.33;;;1.42;;
84759;SDS011;74983;51.084;11.086;2023-12-28T06:46:19;1.75;;;1.15;;
84759;SDS011;74983;51.084;11.086;2023-12-28T06:48:45;1.75;;;0.95;;
84759;SDS011;74983;51.084;11.086;2023-12-28T06:51:17;3.25;;;1.38;;
84759;SDS011;74983;51.084;11.086;2023-12-28T06:53:44;1.83;;;1.58;;
84759;SDS011;74983;51.084;11.086;2023-12-28T06:56:09;2.38;;;1.65;;
84759;SDS011;74983;51.084;11.086;2023-12-28T06:58:34;2.67;;;1.77;;
84759;SDS011;74983;51.084;11.086;2023-12-28T07:01:02;5.05;;;1.73;;
84759;SDS011;74983;51.084;11.086;2023-12-28T07:03:28;2.35;;;1.50;;
84759;SDS011;74983;51.084;11.086;2023-12-28T07:05:57;2.20;;;1.52;;
84759;SDS011;74983;51.084;11.086;2023-12-28T07:08:25;2.90;;;1.73;;
84759;SDS011;74983;51.084;11.086;2023-12-28T07:10:51;4.17;;;1.90;;
84759;SDS011;74983;51.084;11.086;2023-12-28T07:13:16;2.77;;;2.07;;
84759;SDS011;74983;51.084;11.086;2023-12-28T07:15:41;3.90;;;2.03;;
84759;SDS011;74983;51.084;11.086;2023-12-28T07:18:10;5.47;;;1.85;;
84759;SDS011;74983;51.084;11.086;2023-12-28T07:20:38;2.97;;;2.08;;
84759;SDS011;74983;51.084;11.086;2023-12-28T07:23:04;2.90;;;2.40;;
84759;SDS011;74983;51.084;11.086;2023-12-28T07:25:30;2.35;;;1.65;;
84759;SDS011;74983;51.084;11.086;2023-12-28T07:27:56;3.00;;;1.75;;
84759;SDS011;74983;51.084;11.086;2023-12-28T07:30:21;3.30;;;1.83;;
84759;SDS011;74983;51.084;11.086;2023-12-28T07:32:46;4.20;;;2.20;;
84759;SDS011;74983;51.084;11.086;2023-12-28T07:35:12;2.97;;;1.67;;
84759;SDS011;74983;51.084;11.086;2023-12-28T07:37:37;2.87;;;1.60;;
84759;SDS011;74983;51.084;11.086;2023-12-28T07:40:03;4.67;;;1.90;;
84759;SDS011;74983;51.084;11.086;2023-12-28T07:42:29;2.50;;;1.70;;
84759;SDS011;74983;51.084;11.086;2023-12-28T07:44:54;3.53;;;2.05;;
84759;SDS011;74983;51.084;11.086;2023-12-28T07:47:19;4.37;;;1.50;;
84759;SDS011;74983;51.084;11.086;2023-12-28T07:49:45;3.67;;;2.00;;
84759;SDS011;74983;51.084;11.086;2023-12-28T07:52:10;2.50;;;1.83;;
84759;SDS011;74983;51.084;11.086;2023-12-28T07:54:35;2.73;;;1.83;;
84759;SDS011;74983;51.084;11.086;2023-12-28T07:57:00;3.03;;;1.63;;
84759;SDS011;74983;51.084;11.086;2023-12-28T07:59:26;4.20;;;2.53;;
84759;SDS011;74983;51.084;11.086;2023-12-28T08:01:57;4.75;;;2.28;;
84759;SDS011;74983;51.084;11.086;2023-12-28T08:04:23;3.47;;;1.80;;
84759;SDS011;74983;51.084;11.086;2023-12-28T08:06:48;2.43;;;1.60;;
84759;SDS011;74983;51.084;11.086;2023-12-28T08:09:13;5.30;;;2.00;;
84759;SDS011;74983;51.084;11.086;2023-12-28T08:11:41;3.63;;;1.80;;
84759;SDS011;74983;51.084;11.086;2023-12-28T08:14:10;1.95;;;1.58;;
84759;SDS011;74983;51.084;11.086;2023-12-28T08:16:35;3.00;;;2.05;;
84759;SDS011;74983;51.084;11.086;2023-12-28T08:19:01;2.03;;;1.40;;
84759;SDS011;74983;51.084;11.086;2023-12-28T08:21:26;2.67;;;1.52;;
84759;SDS011;74983;51.084;11.086;2023-12-28T08:23:51;2.57;;;1.40;;
84759;SDS011;74983;51.084;11.086;2023-12-28T08:26:17;3.37;;;1.50;;
84759;SDS011;74983;51.084;11.086;2023-12-28T08:28:42;4.50;;;1.95;;
84759;SDS011;74983;51.084;11.086;2023-12-28T08:31:08;2.60;;;1.70;;
84759;SDS011;74983;51.084;11.086;2023-12-28T08:33:34;2.83;;;1.50;;
84759;SDS011;74983;51.084;11.086;2023-12-28T08:38:29;4.85;;;1.70;;
84759;SDS011;74983;51.084;11.086;2023-12-28T08:40:54;3.60;;;1.80;;
84759;SDS011;74983;51.084;11.086;2023-12-28T08:43:20;1.40;;;1.20;;
84759;SDS011;74983;51.084;11.086;2023-12-28T08:45:45;2.63;;;1.50;;
84759;SDS011;74983;51.084;11.086;2023-12-28T08:48:10;1.83;;;1.40;;
84759;SDS011;74983;51.084;11.086;2023-12-28T08:50:36;1.98;;;1.63;;
84759;SDS011;74983;51.084;11.086;2023-12-28T08:53:01;3.23;;;1.53;;
84759;SDS011;74983;51.084;11.086;2023-12-28T08:55:26;3.75;;;1.25;;
84759;SDS011;74983;51.084;11.086;2023-12-28T08:57:52;4.05;;;1.80;;
84759;SDS011;74983;51.084;11.086;2023-12-28T09:00:18;2.33;;;1.77;;
84759;SDS011;74983;51.084;11.086;2023-12-28T09:02:43;2.72;;;1.50;;
84759;SDS011;74983;51.084;11.086;2023-12-28T09:05:09;3.17;;;1.13;;
84759;SDS011;74983;51.084;11.086;2023-12-28T09:07:35;3.22;;;1.60;;
84759;SDS011;74983;51.084;11.086;2023-12-28T09:10:03;3.42;;;1.65;;
84759;SDS011;74983;51.084;11.086;2023-12-28T09:12:32;1.83;;;1.40;;
84759;SDS011;74983;51.084;11.086;2023-12-28T09:14:57;2.80;;;1.40;;
84759;SDS011;74983;51.084;11.086;2023-12-28T09:17:23;2.58;;;1.35;;
84759;SDS011;74983;51.084;11.086;2023-12-28T09:19:49;2.55;;;1.00;;
84759;SDS011;74983;51.084;11.086;2023-12-28T09:22:14;2.20;;;1.10;;
84759;SDS011;74983;51.084;11.086;2023-12-28T09:24:40;1.80;;;1.20;;
84759;SDS011;74983;51.084;11.086;2023-12-28T09:27:12;1.77;;;1.48;;
84759;SDS011;74983;51.084;11.086;2023-12-28T09:30:03;2.22;;;1.25;;
84759;SDS011;74983;51.084;11.086;2023-12-28T09:32:31;2.58;;;1.23;;
84759;SDS011;74983;51.084;11.086;2023-12-28T09:34:58;2.05;;;1.50;;
84759;SDS011;74983;51.084;11.086;2023-12-28T09:37:23;2.00;;;1.20;;
84759;SDS011;74983;51.084;11.086;2023-12-28T09:39:49;1.80;;;1.20;;
84759;SDS011;74983;51.084;11.086;2023-12-28T09:42:20;3.20;;;1.80;;
84759;SDS011;74983;51.084;11.086;2023-12-28T09:45:17;2.40;;;1.60;;
84759;SDS011;74983;51.084;11.086;2023-12-28T09:48:23;2.20;;;1.33;;
84759;SDS011;74983;51.084;11.086;2023-12-28T09:50:49;2.97;;;1.60;;
84759;SDS011;74983;51.084;11.086;2023-12-28T09:53:16;2.05;;;1.10;;
84759;SDS011;74983;51.084;11.086;2023-12-28T09:55:41;1.40;;;0.93;;
84759;SDS011;74983;51.084;11.086;2023-12-28T09:58:07;1.90;;;1.35;;
84759;SDS011;74983;51.084;11.086;2023-12-28T10:00:34;2.70;;;1.35;;
84759;SDS011;74983;51.084;11.086;2023-12-28T10:03:00;2.87;;;2.27;;
84759;SDS011;74983;51.084;11.086;2023-12-28T10:05:25;3.37;;;1.40;;
84759;SDS011;74983;51.084;11.086;2023-12-28T10:07:50;1.43;;;0.90;;
84759;SDS011;74983;51.084;11.086;2023-12-28T10:10:16;2.80;;;1.53;;
84759;SDS011;74983;51.084;11.086;2023-12-28T10:12:42;2.25;;;1.42;;
84759;SDS011;74983;51.084;11.086;2023-12-28T10:15:08;4.22;;;1.45;;
84759;SDS011;74983;51.084;11.086;2023-12-28T10:17:34;3.33;;;1.15;;
84759;SDS011;74983;51.084;11.086;2023-12-28T10:20:01;1.90;;;1.13;;
84759;SDS011;74983;51.084;11.086;2023-12-28T10:22:31;2.10;;;1.02;;
84759;SDS011;74983;51.084;11.086;2023-12-28T10:24:57;1.13;;;0.88;;
84759;SDS011;74983;51.084;11.086;2023-12-28T10:27:24;1.20;;;0.70;;
84759;SDS011;74983;51.084;11.086;2023-12-28T10:29:51;3.33;;;1.50;;
84759;SDS011;74983;51.084;11.086;2023-12-28T10:32:18;1.02;;;0.95;;
84759;SDS011;74983;51.084;11.086;2023-12-28T10:34:43;1.83;;;1.00;;
84759;SDS011;74983;51.084;11.086;2023-12-28T10:37:09;1.80;;;1.10;;
84759;SDS011;74983;51.084;11.086;2023-12-28T10:39:36;2.30;;;1.20;;
84759;SDS011;74983;51.084;11.086;2023-12-28T10:42:07;2.33;;;1.27;;
84759;SDS011;74983;51.084;11.086;2023-12-28T10:44:37;2.53;;;0.98;;
84759;SDS011;74983;51.084;11.086;2023-12-28T10:47:07;1.70;;;0.90;;
84759;SDS011;74983;51.084;11.086;2023-12-28T10:49:40;1.95;;;1.40;;
84759;SDS011;74983;51.084;11.086;2023-12-28T10:52:08;1.83;;;1.02;;
84759;SDS011;74983;51.084;11.086;2023-12-28T10:54:44;2.30;;;1.38;;
84759;SDS011;74983;51.084;11.086;2023-12-28T10:57:28;1.55;;;1.10;;
84759;SDS011;74983;51.084;11.086;2023-12-28T11:02:38;1.70;;;1.20;;
84759;SDS011;74983;51.084;11.086;2023-12-28T11:05:07;1.83;;;1.13;;
84759;SDS011;74983;51.084;11.086;2023-12-28T11:07:32;4.68;;;1.55;;
84759;SDS011;74983;51.084;11.086;2023-12-28T11:10:00;1.05;;;0.77;;
84759;SDS011;74983;51.084;11.086;2023-12-28T11:12:28;1.25;;;0.90;;
84759;SDS011;74983;51.084;11.086;2023-12-28T11:14:53;2.08;;;1.10;;
84759;SDS011;74983;51.084;11.086;2023-12-28T11:17:20;1.27;;;1.08;;
84759;SDS011;74983;51.084;11.086;2023-12-28T11:19:46;3.35;;;1.15;;
84759;SDS011;74983;51.084;11.086;2023-12-28T11:22:13;1.25;;;0.90;;
84759;SDS011;74983;51.084;11.086;2023-12-28T11:24:40;2.97;;;1.20;;
84759;SDS011;74983;51.084;11.086;2023-12-28T11:27:06;1.27;;;0.80;;
84759;SDS011;74983;51.084;11.086;2023-12-28T11:29:31;2.03;;;1.23;;
84759;SDS011;74983;51.084;11.086;2023-12-28T11:31:57;1.30;;;0.93;;
84759;SDS011;74983;51.084;11.086;2023-12-28T11:34:24;2.40;;;1.10;;
84759;SDS011;74983;51.084;11.086;2023-12-28T11:36:53;1.52;;;1.10;;
84759;SDS011;74983;51.084;11.086;2023-12-28T11:39:30;0.90;;;0.70;;
84759;SDS011;74983;51.084;11.086;2023-12-28T11:42:03;2.17;;;1.00;;
84759;SDS011;74983;51.084;11.086;2023-12-28T11:46:55;0.82;;;0.75;;
84759;SDS011;74983;51.084;11.086;2023-12-28T11:49:25;1.33;;;0.70;;
84759;SDS011;74983;51.084;11.086;2023-12-28T11:51:57;1.33;;;0.80;;
84759;SDS011;74983;51.084;11.086;2023-12-28T11:54:26;1.02;;;0.57;;
84759;SDS011;74983;51.084;11.086;2023-12-28T11:56:51;2.30;;;0.68;;
84759;SDS011;74983;51.084;11.086;2023-12-28T11:59:17;0.65;;;0.52;;
84759;SDS011;74983;51.084;11.086;2023-12-28T12:01:43;1.17;;;0.70;;
84759;SDS011;74983;51.084;11.086;2023-12-28T12:04:08;0.80;;;0.63;;
84759;SDS011;74983;51.084;11.086;2023-12-28T12:06:34;2.08;;;0.60;;
84759;SDS011;74983;51.084;11.086;2023-12-28T12:08:59;1.38;;;0.52;;
84759;SDS011;74983;51.084;11.086;2023-12-28T12:11:27;1.20;;;0.70;;
84759;SDS011;74983;51.084;11.086;2023-12-28T12:13:53;1.42;;;0.57;;
84759;SDS011;74983;51.084;11.086;2023-12-28T12:16:20;1.17;;;0.73;;
84759;SDS011;74983;51.084;11.086;2023-12-28T12:18:45;0.75;;;0.70;;
84759;SDS011;74983;51.084;11.086;2023-12-28T12:21:11;1.80;;;1.35;;
84759;SDS011;74983;51.084;11.086;2023-12-28T12:23:37;3.60;;;0.73;;
84759;SDS011;74983;51.084;11.086;2023-12-28T12:26:05;1.20;;;0.93;;
84759;SDS011;74983;51.084;11.086;2023-12-28T12:28:32;1.45;;;0.50;;
84759;SDS011;74983;51.084;11.086;2023-12-28T12:30:57;1.70;;;0.60;;
84759;SDS011;74983;51.084;11.086;2023-12-28T12:33:26;1.05;;;0.70;;
84759;SDS011;74983;51.084;11.086;2023-12-28T12:36:10;1.33;;;0.88;;
84759;SDS011;74983;51.084;11.086;2023-12-28T12:38:36;2.35;;;0.60;;
84759;SDS011;74983;51.084;11.086;2023-12-28T12:41:01;1.48;;;0.90;;
84759;SDS011;74983;51.084;11.086;2023-12-28T12:43:28;2.78;;;0.88;;
84759;SDS011;74983;51.084;11.086;2023-12-28T12:45:53;2.15;;;1.00;;
84759;SDS011;74983;51.084;11.086;2023-12-28T12:48:19;1.77;;;0.65;;
84759;SDS011;74983;51.084;11.086;2023-12-28T12:50:45;0.60;;;0.60;;
84759;SDS011;74983;51.084;11.086;2023-12-28T12:53:11;2.00;;;1.00;;
84759;SDS011;74983;51.084;11.086;2023-12-28T12:55:37;2.55;;;1.70;;
84759;SDS011;74983;51.084;11.086;2023-12-28T12:58:07;1.80;;;0.70;;
84759;SDS011;74983;51.084;11.086;2023-12-28T13:00:34;0.70;;;0.50;;
84759;SDS011;74983;51.084;11.086;2023-12-28T13:03:00;1.45;;;0.77;;
84759;SDS011;74983;51.084;11.086;2023-12-28T13:05:25;3.92;;;1.17;;
84759;SDS011;74983;51.084;11.086;2023-12-28T13:07:51;0.93;;;0.65;;
84759;SDS011;74983;51.084;11.086;2023-12-28T13:10:16;0.85;;;0.60;;
84759;SDS011;74983;51.084;11.086;2023-12-28T13:12:41;1.67;;;1.13;;
84759;SDS011;74983;51.084;11.086;2023-12-28T13:15:07;2.40;;;0.90;;
84759;SDS011;74983;51.084;11.086;2023-12-28T13:17:35;1.55;;;1.00;;
84759;SDS011;74983;51.084;11.086;2023-12-28T13:20:01;1.15;;;0.70;;
84759;SDS011;74983;51.084;11.086;2023-12-28T13:22:28;1.58;;;0.98;;
84759;SDS011;74983;51.084;11.086;2023-12-28T13:24:53;0.57;;;0.57;;
84759;SDS011;74983;51.084;11.086;2023-12-28T13:27:19;1.00;;;0.80;;
84759;SDS011;74983;51.084;11.086;2023-12-28T13:29:44;1.70;;;0.53;;
84759;SDS011;74983;51.084;11.086;2023-12-28T13:32:09;6.77;;;2.00;;
84759;SDS011;74983;51.084;11.086;2023-12-28T13:34:34;1.23;;;0.80;;
84759;SDS011;74983;51.084;11.086;2023-12-28T13:37:00;1.17;;;1.03;;
84759;SDS011;74983;51.084;11.086;2023-12-28T13:39:27;1.27;;;0.75;;
84759;SDS011;74983;51.084;11.086;2023-12-28T13:41:53;0.75;;;0.65;;
84759;SDS011;74983;51.084;11.086;2023-12-28T13:44:19;1.90;;;0.73;;
84759;SDS011;74983;51.084;11.086;2023-12-28T13:46:44;1.30;;;0.50;;
84759;SDS011;74983;51.084;11.086;2023-12-28T13:49:10;1.90;;;1.03;;
84759;SDS011;74983;51.084;11.086;2023-12-28T13:51:35;1.53;;;0.87;;
84759;SDS011;74983;51.084;11.086;2023-12-28T13:54:00;0.75;;;0.47;;
84759;SDS011;74983;51.084;11.086;2023-12-28T13:56:26;1.47;;;0.57;;
84759;SDS011;74983;51.084;11.086;2023-12-28T13:58:51;0.63;;;0.57;;
84759;SDS011;74983;51.084;11.086;2023-12-28T14:01:17;1.13;;;0.70;;
84759;SDS011;74983;51.084;11.086;2023-12-28T14:03:42;1.27;;;0.70;;
84759;SDS011;74983;51.084;11.086;2023-12-28T14:06:10;1.10;;;0.80;;
84759;SDS011;74983;51.084;11.086;2023-12-28T14:08:36;0.60;;;0.50;;
84759;SDS011;74983;51.084;11.086;2023-12-28T14:11:01;2.28;;;0.80;;
84759;SDS011;74983;51.084;11.086;2023-12-28T14:13:27;1.23;;;0.80;;
84759;SDS011;74983;51.084;11.086;2023-12-28T14:15:56;1.27;;;0.60;;
84759;SDS011;74983;51.084;11.086;2023-12-28T14:18:21;3.05;;;0.68;;
84759;SDS011;74983;51.084;11.086;2023-12-28T14:20:46;1.83;;;0.77;;
84759;SDS011;74983;51.084;11.086;2023-12-28T14:23:12;2.53;;;0.67;;
84759;SDS011;74983;51.084;11.086;2023-12-28T14:25:46;1.55;;;0.85;;
84759;SDS011;74983;51.084;11.086;2023-12-28T14:28:21;1.13;;;0.70;;
84759;SDS011;74983;51.084;11.086;2023-12-28T14:30:49;2.92;;;0.88;;
84759;SDS011;74983;51.084;11.086;2023-12-28T14:33:15;0.82;;;0.60;;
84759;SDS011;74983;51.084;11.086;2023-12-28T14:35:43;4.20;;;0.70;;